sensor_id;sensor_type;location;lat;lon;timestamp;temperature;humidity
24470;DHT22;12635;50.852;5.676;2023-07-13T00:00:35;15.10;99.90
24470;DHT22;12635;50.852;5.676;2023-07-13T00:03:02;15.00;99.90
24470;DHT22;12635;50.852;5.676;2023-07-13T00:05:29;15.00;99.90
24470;DHT22;12635;50.852;5.676;2023-07-13T00:07:58;14.80;99.90
24470;DHT22;12635;50.852;5.676;2023-07-13T00:10:25;14.80;99.90
24470;DHT22;12635;50.852;5.676;2023-07-13T00:12:52;14.70;99.90
24470;DHT22;12635;50.852;5.676;2023-07-13T00:15:21;14.80;99.90
24470;DHT22;12635;50.852;5.676;2023-07-13T00:17:48;14.70;99.90
24470;DHT22;12635;50.852;5.676;2023-07-13T00:20:15;14.60;99.90
24470;DHT22;12635;50.852;5.676;2023-07-13T00:22:42;14.60;99.90
24470;DHT22;12635;50.852;5.676;2023-07-13T00:25:11;14.60;99.90
24470;DHT22;12635;50.852;5.676;2023-07-13T00:27:38;14.60;99.90
24470;DHT22;12635;50.852;5.676;2023-07-13T00:30:05;14.60;99.90
24470;DHT22;12635;50.852;5.676;2023-07-13T00:32:34;14.60;99.90
24470;DHT22;12635;50.852;5.676;2023-07-13T00:35:01;14.60;99.90
24470;DHT22;12635;50.852;5.676;2023-07-13T00:37:30;14.60;99.90
24470;DHT22;12635;50.852;5.676;2023-07-13T00:39:57;14.60;99.90
24470;DHT22;12635;50.852;5.676;2023-07-13T00:42:25;14.60;99.90
24470;DHT22;12635;50.852;5.676;2023-07-13T00:45:02;14.60;99.90
24470;DHT22;12635;50.852;5.676;2023-07-13T00:47:29;14.50;99.90
24470;DHT22;12635;50.852;5.676;2023-07-13T00:49:56;14.40;99.90
24470;DHT22;12635;50.852;5.676;2023-07-13T00:52:24;14.40;99.90
24470;DHT22;12635;50.852;5.676;2023-07-13T00:54:51;14.30;99.90
24470;DHT22;12635;50.852;5.676;2023-07-13T00:57:19;14.40;99.90
24470;DHT22;12635;50.852;5.676;2023-07-13T00:59:49;14.30;99.90
24470;DHT22;12635;50.852;5.676;2023-07-13T01:02:17;14.50;99.90
24470;DHT22;12635;50.852;5.676;2023-07-13T01:04:44;14.50;99.90
24470;DHT22;12635;50.852;5.676;2023-07-13T01:07:11;14.50;99.90
24470;DHT22;12635;50.852;5.676;2023-07-13T01:09:38;14.60;99.90
24470;DHT22;12635;50.852;5.676;2023-07-13T01:12:06;14.60;99.90
24470;DHT22;12635;50.852;5.676;2023-07-13T01:14:33;14.60;99.90
24470;DHT22;12635;50.852;5.676;2023-07-13T01:17:02;14.50;99.90
24470;DHT22;12635;50.852;5.676;2023-07-13T01:19:32;14.50;99.90
24470;DHT22;12635;50.852;5.676;2023-07-13T01:22:03;14.40;99.90
24470;DHT22;12635;50.852;5.676;2023-07-13T01:24:34;14.50;99.90
24470;DHT22;12635;50.852;5.676;2023-07-13T01:27:01;14.50;99.90
24470;DHT22;12635;50.852;5.676;2023-07-13T01:29:28;14.40;99.90
24470;DHT22;12635;50.852;5.676;2023-07-13T01:31:55;14.40;99.90
24470;DHT22;12635;50.852;5.676;2023-07-13T01:34:22;14.40;99.90
24470;DHT22;12635;50.852;5.676;2023-07-13T01:36:49;14.40;99.90
24470;DHT22;12635;50.852;5.676;2023-07-13T01:39:22;14.40;99.90
24470;DHT22;12635;50.852;5.676;2023-07-13T01:41:50;14.50;99.90
24470;DHT22;12635;50.852;5.676;2023-07-13T01:44:17;14.40;99.90
24470;DHT22;12635;50.852;5.676;2023-07-13T01:46:44;14.50;99.90
24470;DHT22;12635;50.852;5.676;2023-07-13T01:49:11;14.50;99.90
24470;DHT22;12635;50.852;5.676;2023-07-13T01:51:38;14.50;99.90
24470;DHT22;12635;50.852;5.676;2023-07-13T01:54:05;14.50;99.90
24470;DHT22;12635;50.852;5.676;2023-07-13T01:56:33;14.50;99.90
24470;DHT22;12635;50.852;5.676;2023-07-13T01:59:00;14.50;99.90
24470;DHT22;12635;50.852;5.676;2023-07-13T02:01:27;14.50;99.90
24470;DHT22;12635;50.852;5.676;2023-07-13T02:03:55;14.50;99.90
24470;DHT22;12635;50.852;5.676;2023-07-13T02:06:21;14.50;99.90
24470;DHT22;12635;50.852;5.676;2023-07-13T02:08:48;14.40;99.90
24470;DHT22;12635;50.852;5.676;2023-07-13T02:11:15;14.50;99.90
24470;DHT22;12635;50.852;5.676;2023-07-13T02:13:44;14.50;99.90
24470;DHT22;12635;50.852;5.676;2023-07-13T02:16:11;14.50;99.90
24470;DHT22;12635;50.852;5.676;2023-07-13T02:18:38;14.40;99.90
24470;DHT22;12635;50.852;5.676;2023-07-13T02:21:05;14.40;99.90
24470;DHT22;12635;50.852;5.676;2023-07-13T02:23:32;14.40;99.90
24470;DHT22;12635;50.852;5.676;2023-07-13T02:25:59;14.30;99.90
24470;DHT22;12635;50.852;5.676;2023-07-13T02:28:28;14.20;99.90
24470;DHT22;12635;50.852;5.676;2023-07-13T02:31:03;14.30;99.90
24470;DHT22;12635;50.852;5.676;2023-07-13T02:33:30;14.20;99.90
24470;DHT22;12635;50.852;5.676;2023-07-13T02:35:57;14.10;99.90
24470;DHT22;12635;50.852;5.676;2023-07-13T02:38:24;14.20;99.90
24470;DHT22;12635;50.852;5.676;2023-07-13T02:40:51;14.20;99.90
24470;DHT22;12635;50.852;5.676;2023-07-13T02:43:18;14.20;99.90
24470;DHT22;12635;50.852;5.676;2023-07-13T02:45:45;14.10;99.90
24470;DHT22;12635;50.852;5.676;2023-07-13T02:48:14;14.10;99.90
24470;DHT22;12635;50.852;5.676;2023-07-13T02:50:41;14.10;99.90
24470;DHT22;12635;50.852;5.676;2023-07-13T02:53:08;14.10;99.90
24470;DHT22;12635;50.852;5.676;2023-07-13T02:55:35;14.10;99.90
24470;DHT22;12635;50.852;5.676;2023-07-13T02:58:02;14.00;99.90
24470;DHT22;12635;50.852;5.676;2023-07-13T03:00:29;14.00;99.90
24470;DHT22;12635;50.852;5.676;2023-07-13T03:02:56;13.90;99.90
24470;DHT22;12635;50.852;5.676;2023-07-13T03:05:25;13.80;99.90
24470;DHT22;12635;50.852;5.676;2023-07-13T03:07:52;13.80;99.90
24470;DHT22;12635;50.852;5.676;2023-07-13T03:10:19;13.80;99.90
24470;DHT22;12635;50.852;5.676;2023-07-13T03:12:46;13.80;99.90
24470;DHT22;12635;50.852;5.676;2023-07-13T03:15:13;13.80;99.90
24470;DHT22;12635;50.852;5.676;2023-07-13T03:17:40;13.80;99.90
24470;DHT22;12635;50.852;5.676;2023-07-13T03:20:07;13.80;99.90
24470;DHT22;12635;50.852;5.676;2023-07-13T03:22:36;13.70;99.90
24470;DHT22;12635;50.852;5.676;2023-07-13T03:25:03;13.70;99.90
24470;DHT22;12635;50.852;5.676;2023-07-13T03:27:30;13.80;99.90
24470;DHT22;12635;50.852;5.676;2023-07-13T03:29:57;13.80;99.90
24470;DHT22;12635;50.852;5.676;2023-07-13T03:32:24;13.80;99.90
24470;DHT22;12635;50.852;5.676;2023-07-13T03:34:51;13.80;99.90
24470;DHT22;12635;50.852;5.676;2023-07-13T03:37:18;13.80;99.90
24470;DHT22;12635;50.852;5.676;2023-07-13T03:39:47;13.90;99.90
24470;DHT22;12635;50.852;5.676;2023-07-13T03:42:14;13.90;99.90
24470;DHT22;12635;50.852;5.676;2023-07-13T03:44:41;13.90;99.90
24470;DHT22;12635;50.852;5.676;2023-07-13T03:47:11;13.90;99.90
24470;DHT22;12635;50.852;5.676;2023-07-13T03:49:38;13.90;99.90
24470;DHT22;12635;50.852;5.676;2023-07-13T03:52:05;13.90;99.90
24470;DHT22;12635;50.852;5.676;2023-07-13T03:54:33;13.90;99.90
24470;DHT22;12635;50.852;5.676;2023-07-13T03:57:01;13.80;99.90
24470;DHT22;12635;50.852;5.676;2023-07-13T03:59:28;13.90;99.90
24470;DHT22;12635;50.852;5.676;2023-07-13T04:01:55;13.80;99.90
24470;DHT22;12635;50.852;5.676;2023-07-13T04:04:22;13.90;99.90
24470;DHT22;12635;50.852;5.676;2023-07-13T04:06:49;13.90;99.90
24470;DHT22;12635;50.852;5.676;2023-07-13T04:09:18;13.90;99.90
24470;DHT22;12635;50.852;5.676;2023-07-13T04:11:46;13.90;99.90
24470;DHT22;12635;50.852;5.676;2023-07-13T04:14:15;14.00;99.90
24470;DHT22;12635;50.852;5.676;2023-07-13T04:16:42;14.00;99.90
24470;DHT22;12635;50.852;5.676;2023-07-13T04:19:09;14.00;99.90
24470;DHT22;12635;50.852;5.676;2023-07-13T04:21:36;14.00;99.90
24470;DHT22;12635;50.852;5.676;2023-07-13T04:24:03;14.00;99.90
24470;DHT22;12635;50.852;5.676;2023-07-13T04:26:30;14.00;99.90
24470;DHT22;12635;50.852;5.676;2023-07-13T04:29:01;14.10;99.90
24470;DHT22;12635;50.852;5.676;2023-07-13T04:31:31;14.20;99.90
24470;DHT22;12635;50.852;5.676;2023-07-13T04:33:58;14.40;99.90
24470;DHT22;12635;50.852;5.676;2023-07-13T04:36:25;14.60;99.90
24470;DHT22;12635;50.852;5.676;2023-07-13T04:38:53;14.70;99.90
24470;DHT22;12635;50.852;5.676;2023-07-13T04:41:20;14.70;99.90
24470;DHT22;12635;50.852;5.676;2023-07-13T04:43:47;14.80;99.90
24470;DHT22;12635;50.852;5.676;2023-07-13T04:46:16;14.90;99.90
24470;DHT22;12635;50.852;5.676;2023-07-13T04:48:46;15.00;99.90
24470;DHT22;12635;50.852;5.676;2023-07-13T04:51:13;15.10;99.90
24470;DHT22;12635;50.852;5.676;2023-07-13T04:53:40;15.10;99.90
24470;DHT22;12635;50.852;5.676;2023-07-13T04:56:07;15.10;99.90
24470;DHT22;12635;50.852;5.676;2023-07-13T04:58:34;15.10;99.90
24470;DHT22;12635;50.852;5.676;2023-07-13T05:01:02;15.20;99.90
24470;DHT22;12635;50.852;5.676;2023-07-13T05:03:29;15.20;99.90
24470;DHT22;12635;50.852;5.676;2023-07-13T05:05:58;15.20;99.90
24470;DHT22;12635;50.852;5.676;2023-07-13T05:08:25;15.20;99.90
24470;DHT22;12635;50.852;5.676;2023-07-13T05:10:52;15.20;99.90
24470;DHT22;12635;50.852;5.676;2023-07-13T05:13:19;15.20;99.90
24470;DHT22;12635;50.852;5.676;2023-07-13T05:15:47;15.30;99.90
24470;DHT22;12635;50.852;5.676;2023-07-13T05:18:14;15.40;99.90
24470;DHT22;12635;50.852;5.676;2023-07-13T05:20:41;15.40;99.90
24470;DHT22;12635;50.852;5.676;2023-07-13T05:23:10;15.50;99.90
24470;DHT22;12635;50.852;5.676;2023-07-13T05:25:37;15.50;99.90
24470;DHT22;12635;50.852;5.676;2023-07-13T05:28:04;15.50;99.90
24470;DHT22;12635;50.852;5.676;2023-07-13T05:30:31;15.70;99.90
24470;DHT22;12635;50.852;5.676;2023-07-13T05:32:59;15.70;99.90
24470;DHT22;12635;50.852;5.676;2023-07-13T05:35:26;15.80;99.90
24470;DHT22;12635;50.852;5.676;2023-07-13T05:37:53;15.90;99.90
24470;DHT22;12635;50.852;5.676;2023-07-13T05:40:21;15.80;99.90
24470;DHT22;12635;50.852;5.676;2023-07-13T05:42:48;15.90;99.90
24470;DHT22;12635;50.852;5.676;2023-07-13T05:45:15;16.00;99.90
24470;DHT22;12635;50.852;5.676;2023-07-13T05:47:42;16.00;99.90
24470;DHT22;12635;50.852;5.676;2023-07-13T05:50:09;15.90;99.90
24470;DHT22;12635;50.852;5.676;2023-07-13T05:52:36;16.00;99.90
24470;DHT22;12635;50.852;5.676;2023-07-13T05:55:04;15.90;99.90
24470;DHT22;12635;50.852;5.676;2023-07-13T05:57:32;15.80;99.90
24470;DHT22;12635;50.852;5.676;2023-07-13T05:59:59;15.80;99.90
24470;DHT22;12635;50.852;5.676;2023-07-13T06:02:27;15.80;99.90
24470;DHT22;12635;50.852;5.676;2023-07-13T06:04:54;16.00;99.90
24470;DHT22;12635;50.852;5.676;2023-07-13T06:07:21;16.10;99.90
24470;DHT22;12635;50.852;5.676;2023-07-13T06:09:48;16.00;99.90
24470;DHT22;12635;50.852;5.676;2023-07-13T06:12:15;16.10;99.90
24470;DHT22;12635;50.852;5.676;2023-07-13T06:14:43;16.00;99.90
24470;DHT22;12635;50.852;5.676;2023-07-13T06:17:10;16.10;99.90
24470;DHT22;12635;50.852;5.676;2023-07-13T06:19:37;16.10;99.90
24470;DHT22;12635;50.852;5.676;2023-07-13T06:22:05;16.30;99.90
24470;DHT22;12635;50.852;5.676;2023-07-13T06:24:32;16.40;99.90
24470;DHT22;12635;50.852;5.676;2023-07-13T06:26:59;16.50;99.90
24470;DHT22;12635;50.852;5.676;2023-07-13T06:29:26;16.50;99.90
24470;DHT22;12635;50.852;5.676;2023-07-13T06:31:54;16.50;99.90
24470;DHT22;12635;50.852;5.676;2023-07-13T06:34:21;16.70;99.90
24470;DHT22;12635;50.852;5.676;2023-07-13T06:36:48;17.00;99.90
24470;DHT22;12635;50.852;5.676;2023-07-13T06:39:15;16.90;99.90
24470;DHT22;12635;50.852;5.676;2023-07-13T06:41:42;16.80;99.90
24470;DHT22;12635;50.852;5.676;2023-07-13T06:44:09;16.70;99.90
24470;DHT22;12635;50.852;5.676;2023-07-13T06:46:36;16.80;99.90
24470;DHT22;12635;50.852;5.676;2023-07-13T06:49:04;16.90;99.90
24470;DHT22;12635;50.852;5.676;2023-07-13T06:51:31;17.00;99.90
24470;DHT22;12635;50.852;5.676;2023-07-13T06:53:58;17.10;99.90
24470;DHT22;12635;50.852;5.676;2023-07-13T06:56:25;17.10;99.90
24470;DHT22;12635;50.852;5.676;2023-07-13T06:58:52;17.10;99.90
24470;DHT22;12635;50.852;5.676;2023-07-13T07:01:19;16.80;99.90
24470;DHT22;12635;50.852;5.676;2023-07-13T07:03:46;16.90;99.90
24470;DHT22;12635;50.852;5.676;2023-07-13T07:06:15;17.00;99.90
24470;DHT22;12635;50.852;5.676;2023-07-13T07:08:43;17.20;99.90
24470;DHT22;12635;50.852;5.676;2023-07-13T07:11:11;17.30;99.90
24470;DHT22;12635;50.852;5.676;2023-07-13T07:13:38;17.30;99.90
24470;DHT22;12635;50.852;5.676;2023-07-13T07:16:06;17.40;99.90
24470;DHT22;12635;50.852;5.676;2023-07-13T07:18:34;17.50;99.90
24470;DHT22;12635;50.852;5.676;2023-07-13T07:21:01;17.50;99.90
24470;DHT22;12635;50.852;5.676;2023-07-13T07:23:29;17.30;99.90
24470;DHT22;12635;50.852;5.676;2023-07-13T07:25:56;17.20;99.90
24470;DHT22;12635;50.852;5.676;2023-07-13T07:28:23;17.20;99.90
24470;DHT22;12635;50.852;5.676;2023-07-13T07:30:52;17.20;99.90
24470;DHT22;12635;50.852;5.676;2023-07-13T07:33:19;17.30;99.90
24470;DHT22;12635;50.852;5.676;2023-07-13T07:35:46;17.30;99.90
24470;DHT22;12635;50.852;5.676;2023-07-13T07:38:13;17.30;99.90
24470;DHT22;12635;50.852;5.676;2023-07-13T07:40:42;17.30;99.90
24470;DHT22;12635;50.852;5.676;2023-07-13T07:43:09;17.40;99.90
24470;DHT22;12635;50.852;5.676;2023-07-13T07:45:37;17.50;99.90
24470;DHT22;12635;50.852;5.676;2023-07-13T07:48:04;17.30;99.90
24470;DHT22;12635;50.852;5.676;2023-07-13T07:50:31;17.40;99.90
24470;DHT22;12635;50.852;5.676;2023-07-13T07:52:58;17.50;99.90
24470;DHT22;12635;50.852;5.676;2023-07-13T07:55:27;17.60;99.90
24470;DHT22;12635;50.852;5.676;2023-07-13T07:57:56;17.60;99.90
24470;DHT22;12635;50.852;5.676;2023-07-13T08:00:23;17.80;99.90
24470;DHT22;12635;50.852;5.676;2023-07-13T08:02:50;18.00;99.90
24470;DHT22;12635;50.852;5.676;2023-07-13T08:05:17;18.10;99.90
24470;DHT22;12635;50.852;5.676;2023-07-13T08:07:44;17.90;99.90
24470;DHT22;12635;50.852;5.676;2023-07-13T08:10:11;17.80;99.90
24470;DHT22;12635;50.852;5.676;2023-07-13T08:12:38;17.90;99.90
24470;DHT22;12635;50.852;5.676;2023-07-13T08:15:09;18.00;99.90
24470;DHT22;12635;50.852;5.676;2023-07-13T08:17:36;18.00;99.90
24470;DHT22;12635;50.852;5.676;2023-07-13T08:20:04;17.70;99.90
24470;DHT22;12635;50.852;5.676;2023-07-13T08:22:31;17.70;99.90
24470;DHT22;12635;50.852;5.676;2023-07-13T08:24:58;17.60;99.90
24470;DHT22;12635;50.852;5.676;2023-07-13T08:27:26;17.70;99.90
24470;DHT22;12635;50.852;5.676;2023-07-13T08:29:53;17.80;99.90
24470;DHT22;12635;50.852;5.676;2023-07-13T08:32:22;18.00;99.90
24470;DHT22;12635;50.852;5.676;2023-07-13T08:34:49;18.40;99.90
24470;DHT22;12635;50.852;5.676;2023-07-13T08:37:16;18.90;99.90
24470;DHT22;12635;50.852;5.676;2023-07-13T08:39:43;19.10;99.90
24470;DHT22;12635;50.852;5.676;2023-07-13T08:42:12;19.00;99.90
24470;DHT22;12635;50.852;5.676;2023-07-13T08:44:44;18.80;99.90
24470;DHT22;12635;50.852;5.676;2023-07-13T08:47:12;18.90;99.90
24470;DHT22;12635;50.852;5.676;2023-07-13T08:49:41;19.70;99.90
24470;DHT22;12635;50.852;5.676;2023-07-13T08:52:10;20.30;99.90
24470;DHT22;12635;50.852;5.676;2023-07-13T08:54:40;20.20;99.90
24470;DHT22;12635;50.852;5.676;2023-07-13T08:57:10;19.70;99.90
24470;DHT22;12635;50.852;5.676;2023-07-13T08:59:38;20.20;99.90
24470;DHT22;12635;50.852;5.676;2023-07-13T09:02:18;21.20;99.90
24470;DHT22;12635;50.852;5.676;2023-07-13T09:04:50;21.80;99.90
24470;DHT22;12635;50.852;5.676;2023-07-13T09:07:19;21.60;99.90
24470;DHT22;12635;50.852;5.676;2023-07-13T09:09:57;21.00;99.90
24470;DHT22;12635;50.852;5.676;2023-07-13T09:12:31;20.60;99.90
24470;DHT22;12635;50.852;5.676;2023-07-13T09:15:02;20.70;99.90
24470;DHT22;12635;50.852;5.676;2023-07-13T09:17:31;20.80;99.90
24470;DHT22;12635;50.852;5.676;2023-07-13T09:20:03;20.40;99.90
24470;DHT22;12635;50.852;5.676;2023-07-13T09:22:32;20.70;99.90
24470;DHT22;12635;50.852;5.676;2023-07-13T09:25:02;20.20;99.90
24470;DHT22;12635;50.852;5.676;2023-07-13T09:27:33;20.40;99.90
24470;DHT22;12635;50.852;5.676;2023-07-13T09:30:04;20.70;99.90
24470;DHT22;12635;50.852;5.676;2023-07-13T09:32:39;20.30;99.90
24470;DHT22;12635;50.852;5.676;2023-07-13T09:35:11;21.00;99.90
24470;DHT22;12635;50.852;5.676;2023-07-13T09:37:39;21.80;99.90
24470;DHT22;12635;50.852;5.676;2023-07-13T09:40:08;21.90;99.90
24470;DHT22;12635;50.852;5.676;2023-07-13T09:42:38;21.60;99.90
24470;DHT22;12635;50.852;5.676;2023-07-13T09:45:05;21.30;99.90
24470;DHT22;12635;50.852;5.676;2023-07-13T09:47:37;21.00;99.90
24470;DHT22;12635;50.852;5.676;2023-07-13T09:50:06;20.50;99.90
24470;DHT22;12635;50.852;5.676;2023-07-13T09:52:41;20.50;99.90
24470;DHT22;12635;50.852;5.676;2023-07-13T09:55:23;20.10;99.90
24470;DHT22;12635;50.852;5.676;2023-07-13T09:57:50;20.20;99.90
24470;DHT22;12635;50.852;5.676;2023-07-13T10:00:21;20.50;99.90
24470;DHT22;12635;50.852;5.676;2023-07-13T10:02:57;20.90;99.90
24470;DHT22;12635;50.852;5.676;2023-07-13T10:05:24;21.40;99.90
24470;DHT22;12635;50.852;5.676;2023-07-13T10:07:53;22.00;99.90
24470;DHT22;12635;50.852;5.676;2023-07-13T10:10:22;21.60;99.90
24470;DHT22;12635;50.852;5.676;2023-07-13T10:12:50;22.40;99.90
24470;DHT22;12635;50.852;5.676;2023-07-13T10:15:18;22.80;99.90
24470;DHT22;12635;50.852;5.676;2023-07-13T10:17:45;23.50;99.90
24470;DHT22;12635;50.852;5.676;2023-07-13T10:20:12;22.80;99.90
24470;DHT22;12635;50.852;5.676;2023-07-13T10:22:42;22.80;99.90
24470;DHT22;12635;50.852;5.676;2023-07-13T10:25:17;22.40;99.90
24470;DHT22;12635;50.852;5.676;2023-07-13T10:27:45;22.00;99.90
24470;DHT22;12635;50.852;5.676;2023-07-13T10:30:13;21.40;99.90
24470;DHT22;12635;50.852;5.676;2023-07-13T10:32:42;21.10;99.90
24470;DHT22;12635;50.852;5.676;2023-07-13T10:35:09;21.00;99.90
24470;DHT22;12635;50.852;5.676;2023-07-13T10:37:38;21.00;99.90
24470;DHT22;12635;50.852;5.676;2023-07-13T10:40:11;20.80;99.90
24470;DHT22;12635;50.852;5.676;2023-07-13T10:42:42;20.80;99.90
24470;DHT22;12635;50.852;5.676;2023-07-13T10:45:13;21.00;99.90
24470;DHT22;12635;50.852;5.676;2023-07-13T10:47:41;21.90;99.90
24470;DHT22;12635;50.852;5.676;2023-07-13T10:50:09;22.10;99.90
24470;DHT22;12635;50.852;5.676;2023-07-13T10:52:41;21.90;99.90
24470;DHT22;12635;50.852;5.676;2023-07-13T10:57:52;21.50;99.90
24470;DHT22;12635;50.852;5.676;2023-07-13T11:00:20;22.10;99.90
24470;DHT22;12635;50.852;5.676;2023-07-13T11:02:55;22.00;99.90
24470;DHT22;12635;50.852;5.676;2023-07-13T11:05:26;23.70;99.90
24470;DHT22;12635;50.852;5.676;2023-07-13T11:07:55;24.90;99.90
24470;DHT22;12635;50.852;5.676;2023-07-13T11:13:27;23.60;99.90
24470;DHT22;12635;50.852;5.676;2023-07-13T11:15:56;23.80;99.90
24470;DHT22;12635;50.852;5.676;2023-07-13T11:18:24;24.00;99.90
24470;DHT22;12635;50.852;5.676;2023-07-13T11:20:51;23.90;99.90
24470;DHT22;12635;50.852;5.676;2023-07-13T11:23:29;24.70;99.90
24470;DHT22;12635;50.852;5.676;2023-07-13T11:25:57;24.30;99.90
24470;DHT22;12635;50.852;5.676;2023-07-13T11:28:29;23.80;99.90
24470;DHT22;12635;50.852;5.676;2023-07-13T11:31:12;23.30;99.90
24470;DHT22;12635;50.852;5.676;2023-07-13T11:33:51;22.70;99.90
24470;DHT22;12635;50.852;5.676;2023-07-13T11:36:19;21.70;99.90
24470;DHT22;12635;50.852;5.676;2023-07-13T11:38:51;21.10;99.90
24470;DHT22;12635;50.852;5.676;2023-07-13T11:41:22;20.90;99.90
24470;DHT22;12635;50.852;5.676;2023-07-13T11:43:53;21.10;99.90
24470;DHT22;12635;50.852;5.676;2023-07-13T11:46:21;22.10;99.90
24470;DHT22;12635;50.852;5.676;2023-07-13T11:48:49;22.50;99.90
24470;DHT22;12635;50.852;5.676;2023-07-13T11:51:19;22.80;99.90
24470;DHT22;12635;50.852;5.676;2023-07-13T11:53:48;23.90;99.90
24470;DHT22;12635;50.852;5.676;2023-07-13T11:56:16;23.30;99.90
24470;DHT22;12635;50.852;5.676;2023-07-13T11:58:43;23.10;99.90
24470;DHT22;12635;50.852;5.676;2023-07-13T12:01:15;23.00;99.90
24470;DHT22;12635;50.852;5.676;2023-07-13T12:03:43;23.20;99.90
24470;DHT22;12635;50.852;5.676;2023-07-13T12:06:19;23.20;99.90
24470;DHT22;12635;50.852;5.676;2023-07-13T12:08:48;22.70;99.90
24470;DHT22;12635;50.852;5.676;2023-07-13T12:11:15;23.10;99.90
24470;DHT22;12635;50.852;5.676;2023-07-13T12:13:43;23.50;99.90
24470;DHT22;12635;50.852;5.676;2023-07-13T12:16:16;23.90;99.90
24470;DHT22;12635;50.852;5.676;2023-07-13T12:18:43;25.20;99.90
24470;DHT22;12635;50.852;5.676;2023-07-13T12:21:16;26.00;99.90
24470;DHT22;12635;50.852;5.676;2023-07-13T12:23:44;25.10;99.90
24470;DHT22;12635;50.852;5.676;2023-07-13T12:26:11;24.70;99.90
24470;DHT22;12635;50.852;5.676;2023-07-13T12:28:40;25.40;99.90
24470;DHT22;12635;50.852;5.676;2023-07-13T12:31:19;24.70;99.90
24470;DHT22;12635;50.852;5.676;2023-07-13T12:33:55;23.90;99.90
24470;DHT22;12635;50.852;5.676;2023-07-13T12:36:22;23.70;99.90
24470;DHT22;12635;50.852;5.676;2023-07-13T12:38:49;23.80;99.90
24470;DHT22;12635;50.852;5.676;2023-07-13T12:41:16;23.60;99.90
24470;DHT22;12635;50.852;5.676;2023-07-13T12:43:44;24.10;99.90
24470;DHT22;12635;50.852;5.676;2023-07-13T12:46:17;24.70;99.90
24470;DHT22;12635;50.852;5.676;2023-07-13T12:48:47;25.00;99.90
24470;DHT22;12635;50.852;5.676;2023-07-13T12:51:15;25.00;99.90
24470;DHT22;12635;50.852;5.676;2023-07-13T12:53:47;25.30;99.90
24470;DHT22;12635;50.852;5.676;2023-07-13T12:56:17;25.10;99.90
24470;DHT22;12635;50.852;5.676;2023-07-13T12:58:45;23.80;99.90
24470;DHT22;12635;50.852;5.676;2023-07-13T13:01:22;23.90;99.90
24470;DHT22;12635;50.852;5.676;2023-07-13T13:03:50;24.70;99.90
24470;DHT22;12635;50.852;5.676;2023-07-13T13:06:21;25.30;99.90
24470;DHT22;12635;50.852;5.676;2023-07-13T13:08:49;24.80;99.90
24470;DHT22;12635;50.852;5.676;2023-07-13T13:11:16;24.70;99.90
24470;DHT22;12635;50.852;5.676;2023-07-13T13:13:44;23.90;99.90
24470;DHT22;12635;50.852;5.676;2023-07-13T13:16:14;24.50;99.90
24470;DHT22;12635;50.852;5.676;2023-07-13T13:18:45;24.70;99.90
24470;DHT22;12635;50.852;5.676;2023-07-13T13:21:12;24.70;99.90
24470;DHT22;12635;50.852;5.676;2023-07-13T13:23:39;25.30;99.90
24470;DHT22;12635;50.852;5.676;2023-07-13T13:26:08;24.70;99.90
24470;DHT22;12635;50.852;5.676;2023-07-13T13:28:36;24.40;99.90
24470;DHT22;12635;50.852;5.676;2023-07-13T13:31:03;24.30;99.90
24470;DHT22;12635;50.852;5.676;2023-07-13T13:33:30;24.00;99.90
24470;DHT22;12635;50.852;5.676;2023-07-13T13:35:58;23.70;99.90
24470;DHT22;12635;50.852;5.676;2023-07-13T13:38:26;23.20;99.90
24470;DHT22;12635;50.852;5.676;2023-07-13T13:40:53;23.30;99.90
24470;DHT22;12635;50.852;5.676;2023-07-13T13:43:25;23.70;99.90
24470;DHT22;12635;50.852;5.676;2023-07-13T13:45:53;23.40;99.90
24470;DHT22;12635;50.852;5.676;2023-07-13T13:48:21;23.20;99.90
24470;DHT22;12635;50.852;5.676;2023-07-13T13:50:55;23.40;99.90
24470;DHT22;12635;50.852;5.676;2023-07-13T13:53:24;23.90;99.90
24470;DHT22;12635;50.852;5.676;2023-07-13T13:55:51;23.70;99.90
24470;DHT22;12635;50.852;5.676;2023-07-13T13:58:18;23.60;99.90
24470;DHT22;12635;50.852;5.676;2023-07-13T14:00:45;23.50;99.90
24470;DHT22;12635;50.852;5.676;2023-07-13T14:03:14;23.30;99.90
24470;DHT22;12635;50.852;5.676;2023-07-13T14:05:42;23.00;99.90
24470;DHT22;12635;50.852;5.676;2023-07-13T14:08:11;22.70;99.90
24470;DHT22;12635;50.852;5.676;2023-07-13T14:10:41;22.70;99.90
24470;DHT22;12635;50.852;5.676;2023-07-13T14:13:13;22.60;99.90
24470;DHT22;12635;50.852;5.676;2023-07-13T14:15:42;22.60;99.90
24470;DHT22;12635;50.852;5.676;2023-07-13T14:18:10;22.40;99.90
24470;DHT22;12635;50.852;5.676;2023-07-13T14:20:37;21.70;99.90
24470;DHT22;12635;50.852;5.676;2023-07-13T14:23:04;21.30;99.90
24470;DHT22;12635;50.852;5.676;2023-07-13T14:25:31;20.50;99.90
24470;DHT22;12635;50.852;5.676;2023-07-13T14:27:59;20.10;99.90
24470;DHT22;12635;50.852;5.676;2023-07-13T14:30:33;19.60;99.90
24470;DHT22;12635;50.852;5.676;2023-07-13T14:33:00;19.30;99.90
24470;DHT22;12635;50.852;5.676;2023-07-13T14:35:27;19.30;99.90
24470;DHT22;12635;50.852;5.676;2023-07-13T14:37:54;19.20;99.90
24470;DHT22;12635;50.852;5.676;2023-07-13T14:40:24;19.20;99.90
24470;DHT22;12635;50.852;5.676;2023-07-13T14:42:52;19.20;99.90
24470;DHT22;12635;50.852;5.676;2023-07-13T14:45:21;19.10;99.90
24470;DHT22;12635;50.852;5.676;2023-07-13T14:47:48;19.10;99.90
24470;DHT22;12635;50.852;5.676;2023-07-13T14:50:15;19.20;99.90
24470;DHT22;12635;50.852;5.676;2023-07-13T14:52:43;19.00;99.90
24470;DHT22;12635;50.852;5.676;2023-07-13T14:55:11;19.10;99.90
24470;DHT22;12635;50.852;5.676;2023-07-13T14:57:38;19.20;99.90
24470;DHT22;12635;50.852;5.676;2023-07-13T15:00:07;19.30;99.90
24470;DHT22;12635;50.852;5.676;2023-07-13T15:02:40;19.30;99.90
24470;DHT22;12635;50.852;5.676;2023-07-13T15:05:12;19.50;99.90
24470;DHT22;12635;50.852;5.676;2023-07-13T15:07:39;19.50;99.90
24470;DHT22;12635;50.852;5.676;2023-07-13T15:10:12;19.60;99.90
24470;DHT22;12635;50.852;5.676;2023-07-13T15:12:39;19.90;99.90
24470;DHT22;12635;50.852;5.676;2023-07-13T15:15:07;20.30;99.90
24470;DHT22;12635;50.852;5.676;2023-07-13T15:17:36;20.20;99.90
24470;DHT22;12635;50.852;5.676;2023-07-13T15:20:06;20.20;99.90
24470;DHT22;12635;50.852;5.676;2023-07-13T15:22:36;20.60;99.90
24470;DHT22;12635;50.852;5.676;2023-07-13T15:25:03;21.30;99.90
24470;DHT22;12635;50.852;5.676;2023-07-13T15:27:33;21.60;99.90
24470;DHT22;12635;50.852;5.676;2023-07-13T15:30:02;21.90;99.90
24470;DHT22;12635;50.852;5.676;2023-07-13T15:32:29;21.60;99.90
24470;DHT22;12635;50.852;5.676;2023-07-13T15:34:56;21.70;99.90
24470;DHT22;12635;50.852;5.676;2023-07-13T15:37:25;21.50;99.90
24470;DHT22;12635;50.852;5.676;2023-07-13T15:39:52;21.80;99.90
24470;DHT22;12635;50.852;5.676;2023-07-13T15:42:19;22.00;99.90